createdAt,value
2022-12-23T00:01:38.567Z,8.00
2022-12-23T00:05:40.648Z,8.10
2022-12-23T00:09:42.394Z,8.10
2022-12-23T00:14:03.267Z,8.10
2022-12-23T00:18:05.083Z,8.10
2022-12-23T00:22:06.913Z,8.20
2022-12-23T00:26:16.807Z,8.20
2022-12-23T00:30:18.626Z,8.20
2022-12-23T00:34:20.378Z,8.20
2022-12-23T00:38:40.895Z,8.20
2022-12-23T00:42:54.345Z,8.10
2022-12-23T00:46:56.099Z,8.10
2022-12-23T00:50:57.909Z,8.00
2022-12-23T00:54:59.646Z,8.00
2022-12-23T00:59:01.368Z,8.00
2022-12-23T01:03:21.751Z,7.90
2022-12-23T01:07:23.969Z,7.90
2022-12-23T01:11:25.891Z,8.00
2022-12-23T01:15:27.671Z,8.00
2022-12-23T01:19:29.459Z,8.00
2022-12-23T01:23:31.242Z,8.10
2022-12-23T01:27:32.972Z,8.10
2022-12-23T01:31:34.970Z,8.10
2022-12-23T01:35:36.785Z,8.10
2022-12-23T01:39:38.563Z,8.10
2022-12-23T01:43:51.037Z,8.10
2022-12-23T01:47:58.152Z,8.10
2022-12-23T01:51:59.845Z,8.10
2022-12-23T01:56:19.042Z,8.10
2022-12-23T02:00:39.875Z,8.10
2022-12-23T02:04:41.588Z,8.10
2022-12-23T02:09:02.336Z,8.10
2022-12-23T02:13:15.024Z,8.10
2022-12-23T02:17:39.674Z,8.00
2022-12-23T02:22:06.937Z,8.00
2022-12-23T02:26:46.559Z,8.00
2022-12-23T02:31:11.940Z,8.00
2022-12-23T02:35:18.279Z,8.20
2022-12-23T02:39:31.046Z,8.30
2022-12-23T02:43:45.150Z,8.30
2022-12-23T02:47:59.867Z,8.40
2022-12-23T02:52:08.757Z,8.60
2022-12-23T02:56:10.564Z,8.80
2022-12-23T03:00:13.213Z,9.00
2022-12-23T03:04:21.111Z,9.20
2022-12-23T03:08:35.211Z,9.30
2022-12-23T03:13:04.137Z,9.50
2022-12-23T03:17:48.093Z,9.60
2022-12-23T03:22:55.133Z,9.70
2022-12-23T03:27:19.532Z,9.80
2022-12-23T03:31:25.629Z,9.90
2022-12-23T03:35:33.221Z,10.00
2022-12-23T03:39:39.741Z,10.10
2022-12-23T03:43:50.656Z,10.10
2022-12-23T03:47:56.521Z,10.10
2022-12-23T03:52:04.377Z,10.10
2022-12-23T03:56:26.448Z,10.00
2022-12-23T04:00:28.985Z,10.00
2022-12-23T04:04:57.126Z,10.00
2022-12-23T04:08:58.872Z,10.10
2022-12-23T04:13:00.681Z,10.10
2022-12-23T04:17:02.587Z,10.10
2022-12-23T04:21:04.603Z,10.20
2022-12-23T04:25:07.096Z,10.20
2022-12-23T04:29:08.872Z,10.30
2022-12-23T04:33:11.908Z,10.30
2022-12-23T04:37:13.713Z,10.30
2022-12-23T04:41:15.545Z,10.30
2022-12-23T04:45:17.439Z,10.40
2022-12-23T04:49:19.158Z,10.30
2022-12-23T04:53:20.959Z,10.30
2022-12-23T04:57:22.916Z,10.30
2022-12-23T05:01:24.823Z,10.30
2022-12-23T05:05:26.709Z,10.40
2022-12-23T05:09:28.665Z,10.30
2022-12-23T05:13:30.471Z,10.30
2022-12-23T05:17:32.221Z,10.30
2022-12-23T05:21:34.111Z,10.40
2022-12-23T05:25:39.452Z,10.30
2022-12-23T05:29:41.414Z,10.40
2022-12-23T05:33:43.467Z,10.40
2022-12-23T05:37:45.269Z,10.40
2022-12-23T05:41:47.054Z,10.40
2022-12-23T05:45:49.806Z,10.40
2022-12-23T05:49:51.694Z,10.40
2022-12-23T05:53:53.468Z,10.50
2022-12-23T05:57:55.395Z,10.50
2022-12-23T06:02:04.016Z,10.50
2022-12-23T06:06:14.294Z,10.50
2022-12-23T06:10:16.350Z,10.50
2022-12-23T06:14:21.412Z,10.50
2022-12-23T06:18:28.096Z,10.60
2022-12-23T06:22:31.218Z,10.50
2022-12-23T06:26:36.159Z,10.60
2022-12-23T06:30:40.518Z,10.60
2022-12-23T06:34:42.393Z,10.60
2022-12-23T06:38:47.191Z,10.60
2022-12-23T06:42:52.112Z,10.60
2022-12-23T06:46:56.948Z,10.60
2022-12-23T06:51:04.106Z,10.60
2022-12-23T06:55:09.404Z,10.50
2022-12-23T06:59:11.161Z,10.50
2022-12-23T07:03:13.183Z,10.40
2022-12-23T07:07:15.074Z,10.40
2022-12-23T07:11:16.839Z,10.40
2022-12-23T07:15:18.738Z,10.30
2022-12-23T07:19:20.550Z,10.30
2022-12-23T07:23:22.361Z,10.20
2022-12-23T07:27:24.266Z,10.20
2022-12-23T07:31:26.237Z,10.20
2022-12-23T07:35:35.737Z,10.30
2022-12-23T07:39:38.713Z,10.20
2022-12-23T07:43:40.839Z,10.20
2022-12-23T07:47:43.179Z,10.30
2022-12-23T07:51:44.919Z,10.20
2022-12-23T07:55:56.175Z,10.30
2022-12-23T07:59:58.358Z,10.30
2022-12-23T08:04:00.210Z,10.40
2022-12-23T08:08:02.083Z,10.40
2022-12-23T08:12:04.130Z,10.40
2022-12-23T08:16:08.752Z,10.40
2022-12-23T08:20:11.183Z,10.50
2022-12-23T08:24:13.116Z,10.60
2022-12-23T08:28:14.913Z,10.60
2022-12-23T08:32:16.664Z,10.70
2022-12-23T08:36:24.573Z,10.70
2022-12-23T08:40:26.371Z,10.80
2022-12-23T08:44:28.302Z,10.80
2022-12-23T08:48:30.063Z,10.80
2022-12-23T08:52:33.935Z,10.80
2022-12-23T08:56:39.286Z,10.90
2022-12-23T09:00:41.331Z,11.00
2022-12-23T09:04:43.141Z,11.10
2022-12-23T09:08:45.255Z,11.20
2022-12-23T09:12:47.088Z,11.20
2022-12-23T09:16:51.840Z,11.20
2022-12-23T09:21:01.801Z,11.20
2022-12-23T09:25:05.427Z,11.20
2022-12-23T09:29:07.398Z,11.20
2022-12-23T09:33:09.210Z,11.30
2022-12-23T09:37:13.625Z,11.30
2022-12-23T09:41:37.000Z,11.30
2022-12-23T09:45:52.990Z,11.40
2022-12-23T09:50:01.107Z,11.40
2022-12-23T09:54:23.891Z,11.50
2022-12-23T09:58:47.089Z,11.60
2022-12-23T10:03:28.415Z,11.70
2022-12-23T10:07:49.525Z,11.70
2022-12-23T10:11:53.399Z,11.80
2022-12-23T10:15:58.004Z,11.90
2022-12-23T10:20:02.813Z,11.90
2022-12-23T10:24:13.073Z,11.90
2022-12-23T10:28:14.827Z,11.90
2022-12-23T10:32:34.458Z,11.90
2022-12-23T10:37:02.437Z,12.00
2022-12-23T10:41:39.271Z,12.10
2022-12-23T10:46:21.501Z,12.00
2022-12-23T10:50:46.318Z,12.00
2022-12-23T10:54:50.584Z,12.00
2022-12-23T10:58:58.353Z,12.10
2022-12-23T11:03:13.032Z,12.10
2022-12-23T11:07:44.015Z,12.10
2022-12-23T11:12:03.381Z,12.20
2022-12-23T11:16:22.489Z,12.10
2022-12-23T11:20:24.489Z,12.10
2022-12-23T11:24:35.356Z,12.10
2022-12-23T11:28:53.302Z,12.10
2022-12-23T11:33:32.288Z,12.20
2022-12-23T11:37:42.157Z,12.30
2022-12-23T11:41:48.105Z,12.30
2022-12-23T11:46:24.439Z,12.40
2022-12-23T11:50:28.882Z,12.60
2022-12-23T11:54:34.054Z,12.70
2022-12-23T11:58:48.557Z,12.70
2022-12-23T12:02:55.452Z,12.70
2022-12-23T12:06:57.521Z,12.70
2022-12-23T12:11:08.287Z,12.70
2022-12-23T12:15:41.147Z,12.70
2022-12-23T12:19:56.640Z,12.70
2022-12-23T12:24:38.215Z,12.80
2022-12-23T12:28:49.329Z,12.80
2022-12-23T12:33:00.871Z,12.90
2022-12-23T12:37:42.311Z,12.90
2022-12-23T12:41:58.433Z,12.90
2022-12-23T12:46:18.420Z,12.80
2022-12-23T12:50:29.364Z,12.70
2022-12-23T12:54:46.041Z,12.70
2022-12-23T12:58:48.806Z,12.60
2022-12-23T13:03:22.658Z,12.60
2022-12-23T13:07:55.793Z,12.50
2022-12-23T13:12:08.521Z,12.50
2022-12-23T13:16:50.466Z,12.50
2022-12-23T13:21:16.168Z,12.50
2022-12-23T13:25:26.917Z,12.40
2022-12-23T13:30:00.706Z,12.40
2022-12-23T13:35:13.285Z,12.30
2022-12-23T13:39:36.841Z,12.20
2022-12-23T13:43:57.625Z,12.10
2022-12-23T13:48:38.317Z,12.10
2022-12-23T13:53:20.796Z,12.10
2022-12-23T13:58:02.397Z,12.10
2022-12-23T14:02:36.144Z,12.10
2022-12-23T14:06:39.301Z,12.10
2022-12-23T14:10:41.104Z,12.00
2022-12-23T14:15:22.468Z,12.00
2022-12-23T14:19:54.979Z,12.00
2022-12-23T14:24:47.678Z,12.00
2022-12-23T14:29:06.201Z,12.00
2022-12-23T14:33:36.117Z,12.00
2022-12-23T14:37:40.979Z,12.00
2022-12-23T14:41:53.117Z,11.90
2022-12-23T14:46:21.446Z,11.90
2022-12-23T14:50:38.040Z,11.90
2022-12-23T14:54:46.477Z,11.90
2022-12-23T14:59:46.812Z,11.90
2022-12-23T15:03:54.564Z,11.90
2022-12-23T15:08:01.037Z,11.80
2022-12-23T15:12:11.667Z,11.80
2022-12-23T15:16:17.053Z,11.70
2022-12-23T15:20:26.544Z,11.70
2022-12-23T15:24:28.632Z,11.80
2022-12-23T15:28:37.854Z,11.70
2022-12-23T15:32:45.561Z,11.70
2022-12-23T15:36:48.209Z,11.70
2022-12-23T15:41:13.677Z,11.70
2022-12-23T15:45:36.376Z,11.60
2022-12-23T15:49:41.396Z,11.60
2022-12-23T15:53:57.961Z,11.60
2022-12-23T15:58:02.173Z,11.60
2022-12-23T16:06:56.469Z,11.60
2022-12-23T16:11:05.875Z,11.50
2022-12-23T16:15:22.319Z,11.50
2022-12-23T16:19:43.827Z,11.50
2022-12-23T16:23:50.722Z,11.50
2022-12-23T16:27:58.971Z,11.50
2022-12-23T16:32:02.231Z,11.50
2022-12-23T16:36:34.071Z,11.50
2022-12-23T16:40:37.869Z,11.50
2022-12-23T16:44:39.976Z,11.40
2022-12-23T16:48:45.320Z,11.40
2022-12-23T16:52:48.444Z,11.30
2022-12-23T16:56:54.021Z,11.30
2022-12-23T17:00:55.960Z,11.30
2022-12-23T17:04:57.905Z,11.30
2022-12-23T17:08:59.715Z,11.30
2022-12-23T17:13:01.629Z,11.30
2022-12-23T17:17:10.613Z,11.30
2022-12-23T17:21:21.023Z,11.20
2022-12-23T17:25:26.217Z,11.20
2022-12-23T17:29:28.798Z,11.20
2022-12-23T17:33:31.713Z,11.20
2022-12-23T17:37:40.513Z,11.10
2022-12-23T17:41:42.391Z,11.10
2022-12-23T17:45:44.600Z,11.10
2022-12-23T17:49:46.851Z,11.00
2022-12-23T17:53:57.404Z,11.00
2022-12-23T17:58:00.169Z,10.90
2022-12-23T18:02:04.860Z,10.80
2022-12-23T18:06:16.447Z,10.70
2022-12-23T18:10:23.342Z,10.60
2022-12-23T18:14:29.312Z,10.50
2022-12-23T18:18:41.777Z,10.40
2022-12-23T18:22:48.972Z,10.30
2022-12-23T18:26:51.000Z,10.30
2022-12-23T18:30:54.965Z,10.20
2022-12-23T18:34:58.087Z,10.20
2022-12-23T18:39:00.175Z,10.20
2022-12-23T18:43:16.085Z,10.10
2022-12-23T18:47:17.994Z,10.20
2022-12-23T18:51:23.946Z,10.10
2022-12-23T18:55:26.207Z,10.10
2022-12-23T18:59:30.244Z,10.00
2022-12-23T19:03:32.477Z,10.00
2022-12-23T19:07:34.601Z,10.00
2022-12-23T19:11:36.432Z,10.00
2022-12-23T19:15:38.439Z,10.00
2022-12-23T19:19:40.198Z,9.90
2022-12-23T19:23:42.382Z,9.90
2022-12-23T19:27:44.381Z,9.80
2022-12-23T19:31:46.415Z,9.60
2022-12-23T19:35:49.334Z,9.50
2022-12-23T19:39:52.067Z,9.50
2022-12-23T19:43:56.427Z,9.50
2022-12-23T19:47:58.275Z,9.40
2022-12-23T19:52:03.133Z,9.30
2022-12-23T19:56:08.301Z,9.30
2022-12-23T20:00:10.942Z,9.20
2022-12-23T20:04:13.240Z,9.20
2022-12-23T20:08:23.272Z,9.10
2022-12-23T20:12:26.450Z,9.10
2022-12-23T20:16:29.172Z,9.10
2022-12-23T20:20:31.069Z,9.10
2022-12-23T20:24:46.155Z,9.00
2022-12-23T20:28:48.087Z,9.10
2022-12-23T20:32:53.172Z,9.10
2022-12-23T20:36:55.096Z,9.10
2022-12-23T20:40:56.933Z,9.10
2022-12-23T20:44:59.237Z,9.20
2022-12-23T20:49:06.715Z,9.30
2022-12-23T20:53:10.621Z,9.40
2022-12-23T20:57:12.765Z,9.40
2022-12-23T21:01:14.766Z,9.40
2022-12-23T21:05:24.689Z,9.40
2022-12-23T21:09:29.765Z,9.40
2022-12-23T21:13:31.664Z,9.50
2022-12-23T21:17:34.740Z,9.50
2022-12-23T21:21:39.030Z,9.50
2022-12-23T21:25:43.353Z,9.50
2022-12-23T21:29:47.991Z,9.50
2022-12-23T21:33:50.683Z,9.50
2022-12-23T21:38:00.076Z,9.40
2022-12-23T21:42:02.099Z,9.40
2022-12-23T21:46:12.491Z,9.40
2022-12-23T21:50:14.558Z,9.50
2022-12-23T21:54:16.427Z,9.40
2022-12-23T21:58:18.291Z,9.50
2022-12-23T22:02:20.158Z,9.40
2022-12-23T22:06:27.929Z,9.40
2022-12-23T22:10:29.719Z,9.40
2022-12-23T22:14:31.530Z,9.40
2022-12-23T22:18:33.377Z,9.40
2022-12-23T22:22:35.337Z,9.50
2022-12-23T22:26:37.172Z,9.60
2022-12-23T22:30:38.887Z,9.40
2022-12-23T22:34:40.684Z,9.50
2022-12-23T22:38:42.695Z,9.50
2022-12-23T22:42:44.452Z,9.60
2022-12-23T22:46:46.270Z,9.90
2022-12-23T22:50:48.182Z,10.50
2022-12-23T22:54:50.360Z,10.80
2022-12-23T22:58:52.556Z,11.00
2022-12-23T23:02:54.358Z,11.00
2022-12-23T23:06:56.163Z,11.00
2022-12-23T23:10:59.010Z,11.10
2022-12-23T23:15:00.796Z,11.10
2022-12-23T23:19:03.384Z,11.20
2022-12-23T23:23:06.647Z,11.20
2022-12-23T23:27:09.014Z,11.30
2022-12-23T23:35:32.738Z,11.30
2022-12-23T23:39:34.522Z,11.40
2022-12-23T23:43:36.247Z,11.40
2022-12-23T23:47:38.049Z,11.40
2022-12-23T23:51:39.904Z,11.40
2022-12-23T23:55:41.853Z,11.40
2022-12-23T23:59:43.609Z,11.40
